Time;durP1;ratioP1;P1;durP2;ratioP2;P2;SDS_P1;SDS_P2;PMS_P1;PMS_P2;Temp;Humidity;BMP_temperature;BMP_pressure;BME280_temperature;BME280_humidity;BME280_pressure;Samples;Min_cycle;Max_cycle;Signal;HPM_P1;HPM_P2
2024/03/09 00:01:07;;;;;;;8.65;1.70;;;;;;;;;;4789480;29;20522;-83
2024/03/09 00:03:37;;;;;;;6.10;1.75;;;;;;;;;;4789312;30;20407;-83
2024/03/09 00:06:08;;;;;;;2.63;1.00;;;;;;;;;;4789527;29;20055;-83
2024/03/09 00:08:43;;;;;;;6.15;1.05;;;;;;;;;;4789334;29;20055;-83
2024/03/09 00:11:14;;;;;;;10.70;2.42;;;;;;;;;;4806622;29;20050;-82
2024/03/09 00:13:44;;;;;;;1.38;0.70;;;;;;;;;;4806905;29;20058;-83
2024/03/09 00:16:14;;;;;;;3.47;0.65;;;;;;;;;;4806916;29;20047;-82
2024/03/09 00:18:45;;;;;;;6.57;0.80;;;;;;;;;;4807061;29;20055;-81
2024/03/09 00:21:15;;;;;;;1.10;0.75;;;;;;;;;;4798303;29;20416;-83
2024/03/09 00:23:50;;;;;;;1.75;0.60;;;;;;;;;;4794458;29;20057;-81
2024/03/09 00:26:21;;;;;;;2.80;0.70;;;;;;;;;;4801425;29;20058;-83
2024/03/09 00:28:51;;;;;;;1.98;0.73;;;;;;;;;;4779259;29;20051;-82
2024/03/09 00:31:24;;;;;;;3.00;0.70;;;;;;;;;;4785979;30;20051;-82
2024/03/09 00:33:55;;;;;;;3.80;0.95;;;;;;;;;;4788830;30;20050;-84
2024/03/09 00:36:27;;;;;;;2.35;0.68;;;;;;;;;;4789036;30;20058;-81
2024/03/09 00:38:58;;;;;;;2.03;1.15;;;;;;;;;;4788826;30;20399;-82
2024/03/09 00:41:29;;;;;;;2.80;0.70;;;;;;;;;;4795285;29;20061;-82
2024/03/09 00:44:00;;;;;;;0.93;0.50;;;;;;;;;;4806751;29;20055;-82
2024/03/09 00:46:33;;;;;;;2.95;0.52;;;;;;;;;;4807029;29;20055;-83
2024/03/09 00:49:04;;;;;;;2.75;0.80;;;;;;;;;;4789634;29;20087;-81
2024/03/09 00:51:35;;;;;;;3.60;0.77;;;;;;;;;;4793438;29;20066;-81
2024/03/09 00:54:06;;;;;;;1.10;0.50;;;;;;;;;;4772844;29;20412;-83
2024/03/09 00:56:37;;;;;;;1.92;0.55;;;;;;;;;;4775919;29;20536;-81
2024/03/09 00:59:07;;;;;;;3.75;0.70;;;;;;;;;;4782905;30;20545;-81
2024/03/09 01:01:38;;;;;;;2.70;0.82;;;;;;;;;;4785655;29;20055;-82
2024/03/09 01:04:09;;;;;;;1.95;0.75;;;;;;;;;;4780184;29;20050;-81
2024/03/09 01:06:40;;;;;;;5.25;1.85;;;;;;;;;;4779343;29;20042;-84
2024/03/09 01:09:13;;;;;;;4.22;0.90;;;;;;;;;;4781599;29;20054;-82
2024/03/09 01:11:48;;;;;;;2.63;0.73;;;;;;;;;;4786209;29;20058;-81
2024/03/09 01:14:19;;;;;;;4.70;0.70;;;;;;;;;;4784778;29;20055;-81
2024/03/09 01:16:50;;;;;;;1.63;0.80;;;;;;;;;;4789984;29;20043;-81
2024/03/09 01:19:20;;;;;;;5.78;1.00;;;;;;;;;;4784372;29;21491;-81
2024/03/09 01:21:53;;;;;;;2.22;0.98;;;;;;;;;;4790058;29;20054;-81
2024/03/09 01:24:23;;;;;;;;;;;;;;;;;;4793347;29;20047;-82
2024/03/09 01:26:54;;;;;;;2.40;0.60;;;;;;;;;;4788773;29;19929;-82
2024/03/09 01:29:24;;;;;;;2.92;0.90;;;;;;;;;;4796635;29;20046;-82
2024/03/09 01:31:54;;;;;;;2.45;0.60;;;;;;;;;;4792636;29;20047;-84
2024/03/09 01:34:27;;;;;;;6.15;0.70;;;;;;;;;;4774993;29;20040;-84
2024/03/09 01:36:58;;;;;;;3.22;0.65;;;;;;;;;;4795177;29;20047;-82
2024/03/09 01:39:30;;;;;;;2.47;0.80;;;;;;;;;;4788775;29;20051;-82
2024/03/09 01:42:01;;;;;;;1.85;0.50;;;;;;;;;;4796758;29;20051;-83
2024/03/09 01:44:31;;;;;;;3.72;0.90;;;;;;;;;;4803812;29;20054;-81
2024/03/09 01:47:07;;;;;;;3.42;0.60;;;;;;;;;;4768244;30;20048;-82
2024/03/09 01:49:39;;;;;;;3.13;0.68;;;;;;;;;;4770159;30;20067;-81
2024/03/09 01:52:10;;;;;;;3.58;0.73;;;;;;;;;;4787759;30;20070;-81
2024/03/09 01:54:43;;;;;;;2.40;0.80;;;;;;;;;;4786541;30;20060;-85
2024/03/09 01:57:13;;;;;;;3.25;0.80;;;;;;;;;;4787593;30;20051;-82
2024/03/09 01:59:55;;;;;;;7.22;1.42;;;;;;;;;;4787537;29;20396;-82
2024/03/09 02:02:26;;;;;;;8.18;1.67;;;;;;;;;;4788171;30;20502;-82
2024/03/09 02:04:57;;;;;;;2.20;0.88;;;;;;;;;;4787918;30;20051;-81
2024/03/09 02:07:27;;;;;;;5.28;1.30;;;;;;;;;;4788196;30;20531;-82
2024/03/09 02:09:58;;;;;;;1.83;0.50;;;;;;;;;;4788434;30;20055;-82
2024/03/09 02:12:28;;;;;;;5.20;0.70;;;;;;;;;;4788054;30;20494;-82
2024/03/09 02:14:58;;;;;;;6.82;1.05;;;;;;;;;;4788276;30;20044;-82
2024/03/09 02:17:30;;;;;;;6.57;0.68;;;;;;;;;;4787906;30;20074;-83
2024/03/09 02:20:01;;;;;;;2.60;0.82;;;;;;;;;;4787705;30;20395;-83
2024/03/09 02:22:31;;;;;;;2.40;0.60;;;;;;;;;;4787827;30;20047;-82
2024/03/09 02:25:05;;;;;;;3.38;0.70;;;;;;;;;;4786727;30;20062;-82
2024/03/09 02:27:35;;;;;;;9.45;0.85;;;;;;;;;;4788127;30;20050;-83
2024/03/09 02:30:08;;;;;;;3.80;0.90;;;;;;;;;;4787872;30;20062;-83
2024/03/09 02:32:39;;;;;;;2.88;0.80;;;;;;;;;;4787882;30;20063;-84
2024/03/09 02:35:10;;;;;;;3.97;1.02;;;;;;;;;;4787949;30;20043;-85
2024/03/09 02:37:40;;;;;;;5.20;1.10;;;;;;;;;;4788127;30;20051;-85
2024/03/09 02:40:13;;;;;;;3.97;0.80;;;;;;;;;;4786902;30;20504;-83
2024/03/09 02:45:34;;;;;;;6.10;1.33;;;;;;;;;;4786399;30;20415;-86
2024/03/09 02:48:05;;;;;;;5.70;1.30;;;;;;;;;;4771456;30;20446;-85
2024/03/09 02:50:35;;;;;;;3.22;0.95;;;;;;;;;;4787985;30;20051;-86
2024/03/09 02:53:06;;;;;;;2.25;0.77;;;;;;;;;;4788074;30;20047;-84
2024/03/09 02:55:37;;;;;;;5.22;0.88;;;;;;;;;;4788346;30;20119;-86
2024/03/09 02:58:07;;;;;;;5.88;1.20;;;;;;;;;;4787286;29;20047;-85
2024/03/09 03:00:39;;;;;;;3.20;1.20;;;;;;;;;;4788075;30;20411;-84
2024/03/09 03:06:00;;;;;;;5.63;0.95;;;;;;;;;;4787904;30;20047;-84
2024/03/09 03:08:33;;;;;;;8.32;1.23;;;;;;;;;;4787937;30;20066;-83
2024/03/09 03:11:04;;;;;;;5.70;0.95;;;;;;;;;;4787573;29;20044;-84
2024/03/09 03:13:36;;;;;;;3.97;1.00;;;;;;;;;;4791212;30;20055;-84
2024/03/09 03:16:17;;;;;;;6.78;0.95;;;;;;;;;;4790698;30;20047;-83
2024/03/09 03:18:50;;;;;;;5.63;1.38;;;;;;;;;;4791005;30;20054;-85
2024/03/09 03:21:21;;;;;;;6.78;1.17;;;;;;;;;;4790488;30;20054;-83
2024/03/09 03:23:53;;;;;;;9.30;1.25;;;;;;;;;;4790551;30;20043;-85
2024/03/09 03:26:25;;;;;;;3.03;1.00;;;;;;;;;;4790775;30;20082;-84
2024/03/09 03:28:57;;;;;;;2.78;1.17;;;;;;;;;;4790917;30;20055;-85
2024/03/09 03:31:29;;;;;;;8.38;1.40;;;;;;;;;;4790780;30;20055;-84
2024/03/09 03:34:01;;;;;;;;;;;;;;;;;;4790801;30;20052;-84
2024/03/09 03:36:33;;;;;;;4.03;0.80;;;;;;;;;;4790674;30;19933;-84
2024/03/09 03:39:04;;;;;;;8.60;1.30;;;;;;;;;;4790681;30;20373;-85
2024/03/09 03:41:36;;;;;;;5.18;1.00;;;;;;;;;;4790734;30;20055;-85
2024/03/09 03:44:09;;;;;;;7.50;0.88;;;;;;;;;;4790639;30;20059;-85
2024/03/09 03:46:40;;;;;;;2.75;0.88;;;;;;;;;;4790628;30;20491;-85
2024/03/09 03:49:11;;;;;;;7.45;1.48;;;;;;;;;;4773994;30;20055;-83
2024/03/09 03:51:43;;;;;;;10.50;1.60;;;;;;;;;;4773635;30;20395;-85
2024/03/09 03:54:16;;;;;;;5.38;0.85;;;;;;;;;;4790428;30;20055;-85
2024/03/09 03:56:46;;;;;;;;;;;;;;;;;;4790640;30;20050;-83
2024/03/09 03:59:16;;;;;;;3.50;1.00;;;;;;;;;;4790091;30;19933;-85
2024/03/09 04:01:48;;;;;;;9.00;1.50;;;;;;;;;;4790326;30;20543;-86
2024/03/09 04:04:19;;;;;;;6.28;1.23;;;;;;;;;;4788973;30;20055;-86
2024/03/09 04:06:49;;;;;;;6.90;1.05;;;;;;;;;;4792361;30;20082;-84
2024/03/09 04:09:20;;;;;;;5.43;1.30;;;;;;;;;;4791743;30;20044;-85
2024/03/09 04:11:50;;;;;;;5.28;0.98;;;;;;;;;;4791216;30;20070;-84
2024/03/09 04:14:26;;;;;;;5.15;0.70;;;;;;;;;;4788585;30;20062;-82
2024/03/09 04:16:57;;;;;;;7.20;1.20;;;;;;;;;;4808976;30;20065;-83
2024/03/09 04:19:28;;;;;;;11.63;1.17;;;;;;;;;;4808510;30;20050;-80
2024/03/09 04:21:59;;;;;;;5.15;1.10;;;;;;;;;;4808643;30;20058;-81
2024/03/09 04:24:29;;;;;;;6.80;1.10;;;;;;;;;;4798145;29;20070;-84
2024/03/09 04:27:03;;;;;;;7.75;1.20;;;;;;;;;;4789707;30;20051;-83
2024/03/09 04:29:34;;;;;;;10.50;1.35;;;;;;;;;;4773874;30;20525;-85
2024/03/09 04:32:07;;;;;;;7.47;1.10;;;;;;;;;;4790032;30;20051;-84
2024/03/09 04:34:40;;;;;;;4.32;1.17;;;;;;;;;;4789708;30;20043;-83
2024/03/09 04:37:10;;;;;;;7.00;1.30;;;;;;;;;;4790180;30;20063;-85
2024/03/09 04:39:43;;;;;;;6.70;1.77;;;;;;;;;;4789374;30;20400;-84
2024/03/09 04:42:14;;;;;;;2.75;1.35;;;;;;;;;;4789809;30;20479;-83
2024/03/09 04:44:45;;;;;;;10.02;1.80;;;;;;;;;;4789421;30;20047;-85
2024/03/09 04:47:16;;;;;;;3.50;1.85;;;;;;;;;;4773796;30;20059;-82
2024/03/09 04:49:50;;;;;;;2.88;1.20;;;;;;;;;;4789013;30;20066;-83
2024/03/09 04:52:21;;;;;;;4.80;1.30;;;;;;;;;;4804633;29;20073;-83
2024/03/09 04:54:51;;;;;;;4.50;1.13;;;;;;;;;;4807102;29;20047;-83
2024/03/09 04:57:24;;;;;;;4.00;1.02;;;;;;;;;;4807926;29;20043;-84
2024/03/09 04:59:55;;;;;;;8.13;1.60;;;;;;;;;;4807055;29;20054;-84
2024/03/09 05:02:26;;;;;;;7.82;1.27;;;;;;;;;;4786623;29;20051;-85
2024/03/09 05:04:56;;;;;;;18.25;2.45;;;;;;;;;;4788936;30;20055;-83
2024/03/09 05:07:26;;;;;;;8.18;1.10;;;;;;;;;;4788716;30;20062;-83
2024/03/09 05:09:56;;;;;;;5.82;1.17;;;;;;;;;;4788700;30;20051;-84
2024/03/09 05:12:27;;;;;;;4.80;1.23;;;;;;;;;;4788712;30;20534;-84
2024/03/09 05:14:58;;;;;;;6.57;1.30;;;;;;;;;;4788917;30;20062;-83
2024/03/09 05:17:29;;;;;;;8.77;1.20;;;;;;;;;;4788560;30;20052;-82
2024/03/09 05:20:11;;;;;;;5.55;1.42;;;;;;;;;;4788180;30;20054;-83
2024/03/09 05:22:44;;;;;;;7.32;1.15;;;;;;;;;;4789055;30;20051;-82
2024/03/09 05:25:15;;;;;;;3.53;1.58;;;;;;;;;;4787684;30;20141;-82
2024/03/09 05:27:46;;;;;;;7.93;1.23;;;;;;;;;;4788760;30;20047;-82
2024/03/09 05:30:18;;;;;;;3.42;1.40;;;;;;;;;;4788473;30;20067;-84
2024/03/09 05:33:06;;;;;;;4.60;1.20;;;;;;;;;;4788243;30;20051;-82
2024/03/09 05:35:37;;;;;;;3.22;1.13;;;;;;;;;;4788437;29;20165;-82
2024/03/09 05:38:08;;;;;;;2.78;1.17;;;;;;;;;;4788665;30;20399;-82
2024/03/09 05:40:39;;;;;;;2.53;1.00;;;;;;;;;;4788310;30;20047;-81
2024/03/09 05:43:11;;;;;;;2.90;0.93;;;;;;;;;;4788067;29;20058;-81
2024/03/09 05:45:41;;;;;;;3.55;1.20;;;;;;;;;;4788601;30;20047;-83
2024/03/09 05:48:12;;;;;;;1.50;0.82;;;;;;;;;;4771479;30;20055;-85
2024/03/09 05:50:43;;;;;;;10.70;1.25;;;;;;;;;;4788012;30;20054;-82
2024/03/09 05:53:13;;;;;;;3.47;0.88;;;;;;;;;;4788133;30;20070;-83
2024/03/09 05:55:43;;;;;;;2.97;0.90;;;;;;;;;;4787781;30;20051;-83
2024/03/09 05:58:14;;;;;;;4.95;1.00;;;;;;;;;;4786930;29;20055;-82
2024/03/09 06:00:44;;;;;;;4.38;1.00;;;;;;;;;;4787492;30;20055;-84
2024/03/09 06:03:15;;;;;;;3.38;1.10;;;;;;;;;;4787606;29;20047;-82
2024/03/09 06:05:45;;;;;;;2.47;1.00;;;;;;;;;;4787947;30;20059;-83
2024/03/09 06:08:16;;;;;;;4.72;1.00;;;;;;;;;;4787757;30;20054;-83
2024/03/09 06:10:50;;;;;;;3.70;1.08;;;;;;;;;;4787992;30;20047;-82
2024/03/09 06:13:30;;;;;;;5.07;1.00;;;;;;;;;;4788329;30;20054;-81
2024/03/09 06:16:00;;;;;;;6.15;1.35;;;;;;;;;;4786645;29;20047;-81
2024/03/09 06:18:30;;;;;;;2.92;1.17;;;;;;;;;;4787567;30;20058;-82
2024/03/09 06:21:00;;;;;;;2.65;0.90;;;;;;;;;;4787180;29;20066;-82
2024/03/09 06:23:30;;;;;;;3.25;1.30;;;;;;;;;;4787059;30;20075;-82
2024/03/09 06:26:01;;;;;;;8.43;1.30;;;;;;;;;;4788048;30;20062;-83
2024/03/09 06:28:33;;;;;;;5.60;1.70;;;;;;;;;;4788073;30;20506;-82
2024/03/09 06:31:03;;;;;;;6.55;1.75;;;;;;;;;;4787887;30;20050;-82
2024/03/09 06:33:33;;;;;;;2.60;1.10;;;;;;;;;;4788325;30;20383;-83
2024/03/09 06:36:05;;;;;;;6.40;1.65;;;;;;;;;;4788053;30;20062;-82
2024/03/09 06:38:35;;;;;;;4.47;1.50;;;;;;;;;;4787914;30;20480;-81
2024/03/09 06:41:05;;;;;;;3.47;1.50;;;;;;;;;;4787547;30;20411;-82
2024/03/09 06:43:37;;;;;;;4.38;1.45;;;;;;;;;;4788322;30;20063;-82
2024/03/09 06:46:08;;;;;;;6.93;1.48;;;;;;;;;;4787818;29;20411;-82
2024/03/09 06:48:39;;;;;;;7.28;1.40;;;;;;;;;;4775013;30;20055;-81
2024/03/09 06:51:11;;;;;;;2.67;1.30;;;;;;;;;;4791617;30;20531;-82
2024/03/09 06:53:43;;;;;;;6.57;1.50;;;;;;;;;;4774433;30;20440;-82
2024/03/09 06:56:14;;;;;;;6.60;1.30;;;;;;;;;;4791114;30;20488;-83
2024/03/09 06:58:44;;;;;;;5.15;1.35;;;;;;;;;;4791293;30;20059;-82
2024/03/09 07:01:20;;;;;;;4.35;1.30;;;;;;;;;;4791332;30;20058;-81
2024/03/09 07:03:50;;;;;;;5.03;1.27;;;;;;;;;;4775577;30;20063;-83
2024/03/09 07:06:21;;;;;;;7.32;1.48;;;;;;;;;;4790912;30;20368;-83
2024/03/09 07:08:52;;;;;;;7.05;1.50;;;;;;;;;;4790604;30;20053;-82
2024/03/09 07:11:25;;;;;;;3.78;1.17;;;;;;;;;;4790903;30;20051;-82
2024/03/09 07:13:57;;;;;;;2.15;1.00;;;;;;;;;;4790920;30;20047;-82
2024/03/09 07:16:29;;;;;;;7.30;1.27;;;;;;;;;;4791022;30;20064;-82
2024/03/09 07:19:00;;;;;;;7.95;1.33;;;;;;;;;;4790954;30;20506;-83
2024/03/09 07:21:30;;;;;;;5.88;1.48;;;;;;;;;;4790829;30;20059;-82
2024/03/09 07:24:06;;;;;;;6.05;1.50;;;;;;;;;;4791126;30;20052;-82
2024/03/09 07:26:36;;;;;;;5.03;1.60;;;;;;;;;;4775548;30;20058;-83
2024/03/09 07:29:07;;;;;;;5.88;1.50;;;;;;;;;;4791018;30;20058;-83
2024/03/09 07:31:38;;;;;;;6.70;1.30;;;;;;;;;;4790783;30;20526;-82
2024/03/09 07:34:09;;;;;;;8.20;1.38;;;;;;;;;;4791021;30;20059;-82
2024/03/09 07:36:40;;;;;;;5.95;1.23;;;;;;;;;;4790818;30;20054;-81
2024/03/09 07:39:15;;;;;;;5.72;1.50;;;;;;;;;;4790268;30;20066;-83
2024/03/09 07:41:46;;;;;;;5.70;1.42;;;;;;;;;;4774609;30;20074;-82
2024/03/09 07:44:17;;;;;;;4.60;1.40;;;;;;;;;;4790652;30;20066;-82
2024/03/09 07:46:47;;;;;;;7.70;1.50;;;;;;;;;;4790403;30;20047;-82
2024/03/09 07:49:17;;;;;;;6.05;1.65;;;;;;;;;;4774187;30;20063;-81
2024/03/09 07:51:48;;;;;;;8.25;2.25;;;;;;;;;;4790305;30;20384;-82
2024/03/09 07:54:19;;;;;;;4.57;2.10;;;;;;;;;;4773588;30;20048;-80
2024/03/09 07:56:52;;;;;;;8.93;1.83;;;;;;;;;;4790419;30;20051;-82
2024/03/09 07:59:23;;;;;;;4.35;1.60;;;;;;;;;;4789039;29;20058;-82
2024/03/09 08:01:55;;;;;;;7.93;1.60;;;;;;;;;;4786652;29;20051;-82
2024/03/09 08:04:27;;;;;;;3.35;1.85;;;;;;;;;;4788883;29;20054;-83
2024/03/09 08:07:00;;;;;;;6.25;1.40;;;;;;;;;;4790135;29;20058;-83
2024/03/09 08:09:33;;;;;;;11.52;1.48;;;;;;;;;;4775354;30;20054;-82
2024/03/09 08:12:04;;;;;;;6.75;1.60;;;;;;;;;;4796794;29;20056;-82
2024/03/09 08:14:35;;;;;;;10.70;2.25;;;;;;;;;;4789060;29;20411;-83
2024/03/09 08:17:07;;;;;;;5.30;1.40;;;;;;;;;;4788816;29;20522;-83
2024/03/09 08:19:38;;;;;;;10.65;2.05;;;;;;;;;;4789418;30;20062;-83
2024/03/09 08:22:10;;;;;;;3.28;1.85;;;;;;;;;;4789622;30;20411;-84
2024/03/09 08:24:41;;;;;;;5.05;2.10;;;;;;;;;;4789652;30;20391;-83
2024/03/09 08:27:11;;;;;;;6.38;2.55;;;;;;;;;;4788940;29;20051;-82
2024/03/09 08:29:41;;;;;;;7.85;1.83;;;;;;;;;;4789863;30;20522;-82
2024/03/09 08:32:11;;;;;;;8.50;1.85;;;;;;;;;;4789356;30;20058;-82
2024/03/09 08:34:42;;;;;;;12.18;1.88;;;;;;;;;;4789635;30;20055;-83
2024/03/09 08:37:12;;;;;;;14.43;2.50;;;;;;;;;;4789837;30;20498;-82
2024/03/09 08:39:44;;;;;;;26.10;2.78;;;;;;;;;;4789544;30;20051;-83
2024/03/09 08:42:15;;;;;;;;;;;;;;;;;;4773503;30;20059;-84
2024/03/09 08:44:45;;;;;;;37.30;3.55;;;;;;;;;;4789234;30;20389;-83
2024/03/09 08:47:15;;;;;;;18.73;2.75;;;;;;;;;;4789612;30;20048;-82
2024/03/09 08:49:45;;;;;;;14.25;2.83;;;;;;;;;;4789170;30;20051;-83
2024/03/09 08:52:16;;;;;;;13.27;2.38;;;;;;;;;;4789144;30;20407;-84
2024/03/09 08:54:50;;;;;;;16.35;2.47;;;;;;;;;;4796031;29;20498;-84
2024/03/09 08:57:20;;;;;;;10.93;3.25;;;;;;;;;;4796777;29;20051;-83
2024/03/09 08:59:53;;;;;;;11.52;3.25;;;;;;;;;;4796316;29;20050;-83
2024/03/09 09:02:29;;;;;;;9.73;2.88;;;;;;;;;;4789044;30;20051;-83
2024/03/09 09:05:00;;;;;;;10.98;2.60;;;;;;;;;;4789088;30;20051;-84
2024/03/09 09:07:33;;;;;;;15.38;3.22;;;;;;;;;;4773159;30;20051;-83
2024/03/09 09:10:04;;;;;;;13.98;2.78;;;;;;;;;;4788563;29;20047;-84
2024/03/09 09:12:35;;;;;;;16.30;2.60;;;;;;;;;;4789044;30;20054;-83
2024/03/09 09:15:09;;;;;;;22.60;3.55;;;;;;;;;;4789330;30;20050;-83
2024/03/09 09:17:40;;;;;;;15.73;3.92;;;;;;;;;;4789546;30;20055;-85
2024/03/09 09:20:11;;;;;;;11.38;3.00;;;;;;;;;;4789346;30;20055;-83
2024/03/09 09:22:47;;;;;;;16.73;3.25;;;;;;;;;;4788711;30;20055;-84
2024/03/09 09:25:23;;;;;;;7.38;2.75;;;;;;;;;;4788359;30;20119;-83
2024/03/09 09:28:01;;;;;;;10.15;2.97;;;;;;;;;;4788794;30;20047;-83
2024/03/09 09:30:35;;;;;;;12.52;2.83;;;;;;;;;;4788391;30;20050;-84
2024/03/09 09:33:06;;;;;;;14.02;2.60;;;;;;;;;;4789099;30;20369;-83
2024/03/09 09:35:37;;;;;;;14.90;3.17;;;;;;;;;;4772067;30;20511;-84
2024/03/09 09:38:07;;;;;;;12.48;2.70;;;;;;;;;;4788951;30;20047;-83
2024/03/09 09:40:37;;;;;;;7.00;2.25;;;;;;;;;;4772233;30;20055;-83
2024/03/09 09:43:08;;;;;;;12.55;2.60;;;;;;;;;;4801301;29;20059;-84
2024/03/09 09:45:45;;;;;;;13.45;2.50;;;;;;;;;;4788461;30;20055;-82
2024/03/09 09:48:17;;;;;;;18.90;2.90;;;;;;;;;;4786984;30;20409;-83
2024/03/09 09:50:49;;;;;;;8.23;2.72;;;;;;;;;;4772218;30;20440;-82
2024/03/09 09:53:24;;;;;;;9.00;2.78;;;;;;;;;;4801725;29;20412;-83
2024/03/09 09:55:54;;;;;;;12.88;3.05;;;;;;;;;;4788274;30;20522;-83
2024/03/09 09:58:25;;;;;;;16.45;2.35;;;;;;;;;;4788086;30;20082;-82
2024/03/09 10:00:55;;;;;;;13.60;2.72;;;;;;;;;;4788184;30;20055;-82
2024/03/09 10:03:26;;;;;;;8.20;2.67;;;;;;;;;;4788198;30;20055;-83
2024/03/09 10:05:57;;;;;;;7.15;2.35;;;;;;;;;;4788894;30;20055;-84
2024/03/09 10:08:27;;;;;;;9.35;2.80;;;;;;;;;;4772877;30;20387;-84
2024/03/09 10:10:57;;;;;;;4.28;2.22;;;;;;;;;;4787939;30;20047;-84
2024/03/09 10:13:28;;;;;;;6.22;1.95;;;;;;;;;;4788108;30;20043;-85
2024/03/09 10:16:03;;;;;;;4.60;2.00;;;;;;;;;;4788100;30;20054;-84
2024/03/09 10:18:33;;;;;;;4.72;1.77;;;;;;;;;;4788192;30;20062;-85
2024/03/09 10:21:05;;;;;;;5.75;1.77;;;;;;;;;;4787959;29;20055;-85
2024/03/09 10:23:37;;;;;;;4.45;2.50;;;;;;;;;;4792066;30;20395;-84
2024/03/09 10:26:10;;;;;;;5.95;2.08;;;;;;;;;;4792285;30;20395;-83
2024/03/09 10:28:40;;;;;;;4.28;1.52;;;;;;;;;;4792472;30;20047;-84
2024/03/09 10:31:12;;;;;;;5.50;1.85;;;;;;;;;;4791882;30;20059;-84
2024/03/09 10:33:43;;;;;;;7.10;1.30;;;;;;;;;;4791631;30;20054;-83
2024/03/09 10:36:17;;;;;;;4.15;1.30;;;;;;;;;;4791644;30;20487;-84
2024/03/09 10:38:54;;;;;;;4.25;1.15;;;;;;;;;;4804726;29;20070;-85
2024/03/09 10:41:26;;;;;;;2.58;1.10;;;;;;;;;;4791356;30;20055;-85
2024/03/09 10:43:57;;;;;;;8.35;3.72;;;;;;;;;;4791860;30;20380;-83
2024/03/09 10:46:32;;;;;;;4.15;1.60;;;;;;;;;;4791433;30;20058;-84
2024/03/09 10:49:04;;;;;;;4.90;2.20;;;;;;;;;;4791314;30;20391;-84
2024/03/09 10:51:50;;;;;;;2.67;1.70;;;;;;;;;;4780097;29;20399;-82
2024/03/09 10:54:44;;;;;;;4.80;1.80;;;;;;;;;;4789881;30;20110;-83
2024/03/09 10:57:23;;;;;;;3.58;1.55;;;;;;;;;;4790454;30;20047;-83
2024/03/09 10:59:57;;;;;;;7.43;1.27;;;;;;;;;;4802631;29;20047;-82
2024/03/09 11:02:28;;;;;;;3.63;1.38;;;;;;;;;;4791187;30;20054;-83
2024/03/09 11:05:01;;;;;;;4.15;1.77;;;;;;;;;;4790771;30;20415;-83
2024/03/09 11:07:34;;;;;;;5.75;1.10;;;;;;;;;;4805772;30;20072;-81
2024/03/09 11:10:06;;;;;;;5.80;2.22;;;;;;;;;;4807427;30;20434;-82
2024/03/09 11:12:36;;;;;;;3.65;1.60;;;;;;;;;;4808394;30;20058;-83
2024/03/09 11:15:08;;;;;;;2.65;1.52;;;;;;;;;;4804294;30;20063;-80
2024/03/09 11:17:45;;;;;;;5.68;1.73;;;;;;;;;;4795503;30;20051;-84
2024/03/09 11:20:21;;;;;;;3.60;2.00;;;;;;;;;;4789775;30;20551;-83
2024/03/09 11:22:52;;;;;;;5.30;2.00;;;;;;;;;;4807135;30;20055;-82
2024/03/09 11:25:57;;;;;;;9.82;2.42;;;;;;;;;;4800799;29;20058;-83
2024/03/09 11:28:51;;;;;;;4.03;1.55;;;;;;;;;;4756125;29;20066;-83
2024/03/09 11:31:30;;;;;;;4.88;2.55;;;;;;;;;;4807770;29;20621;-82
2024/03/09 11:34:16;;;;;;;7.35;2.00;;;;;;;;;;4807361;29;20058;-82
2024/03/09 11:36:57;;;;;;;3.83;1.60;;;;;;;;;;4772121;30;20051;-83
2024/03/09 11:39:29;;;;;;;5.95;1.83;;;;;;;;;;4783813;30;20062;-82
2024/03/09 11:42:08;;;;;;;5.80;2.25;;;;;;;;;;4763838;30;20067;-82
2024/03/09 11:44:39;;;;;;;5.25;2.00;;;;;;;;;;4789029;30;20058;-83
2024/03/09 11:47:10;;;;;;;6.00;2.08;;;;;;;;;;4792019;29;20038;-82
2024/03/09 11:49:41;;;;;;;5.10;1.80;;;;;;;;;;4797083;29;20051;-82
2024/03/09 11:52:14;;;;;;;3.90;1.77;;;;;;;;;;4778025;30;20539;-82
2024/03/09 11:54:48;;;;;;;7.72;2.00;;;;;;;;;;4789607;30;20051;-81
2024/03/09 11:57:20;;;;;;;7.40;1.92;;;;;;;;;;4789757;30;20047;-81
2024/03/09 11:59:51;;;;;;;4.30;1.40;;;;;;;;;;4773451;30;20058;-81
2024/03/09 12:02:23;;;;;;;4.65;1.40;;;;;;;;;;4789469;30;20058;-84
2024/03/09 12:04:56;;;;;;;8.80;1.42;;;;;;;;;;4789430;30;20058;-84
2024/03/09 12:07:27;;;;;;;3.28;0.77;;;;;;;;;;4773442;30;20051;-83
2024/03/09 12:10:01;;;;;;;3.80;1.25;;;;;;;;;;4789893;30;20055;-84
2024/03/09 12:12:37;;;;;;;3.40;0.68;;;;;;;;;;4783022;30;20059;-85
2024/03/09 12:15:10;;;;;;;2.85;0.47;;;;;;;;;;4790930;30;20047;-86
2024/03/09 12:17:42;;;;;;;2.95;0.50;;;;;;;;;;4790470;30;20058;-85
2024/03/09 12:20:14;;;;;;;2.13;0.40;;;;;;;;;;4790149;30;20074;-85
2024/03/09 12:22:45;;;;;;;6.00;0.70;;;;;;;;;;4790031;30;20043;-85
2024/03/09 12:25:16;;;;;;;1.90;0.80;;;;;;;;;;4773659;30;20411;-85
2024/03/09 12:27:46;;;;;;;;;;;;;;;;;;4774816;30;20547;-85
2024/03/09 12:30:17;;;;;;;1.40;0.40;;;;;;;;;;4789634;30;19926;-85
2024/03/09 12:32:47;;;;;;;2.33;0.47;;;;;;;;;;4790213;30;20058;-86
2024/03/09 12:35:19;;;;;;;26.52;1.60;;;;;;;;;;4790758;30;20059;-86
2024/03/09 12:37:49;;;;;;;2.25;0.60;;;;;;;;;;4790273;30;20039;-85
2024/03/09 12:40:20;;;;;;;2.60;0.50;;;;;;;;;;4774536;30;20080;-85
2024/03/09 12:42:53;;;;;;;1.48;0.40;;;;;;;;;;4791055;30;20067;-86
2024/03/09 12:45:26;;;;;;;1.00;0.40;;;;;;;;;;4773370;30;20051;-84
2024/03/09 12:47:58;;;;;;;1.30;0.43;;;;;;;;;;4790725;30;20047;-83
2024/03/09 12:50:31;;;;;;;4.10;0.50;;;;;;;;;;4790376;30;20047;-86
2024/03/09 12:53:02;;;;;;;9.80;0.70;;;;;;;;;;4772779;30;20066;-82
2024/03/09 12:55:35;;;;;;;2.65;0.95;;;;;;;;;;4790978;30;20388;-85
2024/03/09 12:58:11;;;;;;;2.22;0.50;;;;;;;;;;4773203;30;20055;-85
2024/03/09 13:00:45;;;;;;;2.47;0.60;;;;;;;;;;4790152;30;20070;-85
2024/03/09 13:03:20;;;;;;;2.15;0.40;;;;;;;;;;4789696;30;20051;-85
2024/03/09 13:05:51;;;;;;;1.13;0.40;;;;;;;;;;4789295;30;20059;-85
2024/03/09 13:08:26;;;;;;;1.42;0.40;;;;;;;;;;4789330;30;20051;-85
2024/03/09 13:11:00;;;;;;;5.43;0.50;;;;;;;;;;4789228;30;20051;-85
2024/03/09 13:13:30;;;;;;;1.30;0.50;;;;;;;;;;4807027;29;20047;-84
2024/03/09 13:16:01;;;;;;;1.52;0.30;;;;;;;;;;4807770;29;20055;-86
2024/03/09 13:18:36;;;;;;;0.80;0.50;;;;;;;;;;4807314;29;20057;-86
2024/03/09 13:21:07;;;;;;;3.08;0.38;;;;;;;;;;4806710;29;20498;-84
2024/03/09 13:23:41;;;;;;;2.58;0.82;;;;;;;;;;4807047;29;20403;-86
2024/03/09 13:26:14;;;;;;;0.82;0.63;;;;;;;;;;4807331;29;20399;-85
2024/03/09 13:28:44;;;;;;;0.60;0.35;;;;;;;;;;4807172;29;20039;-84
2024/03/09 13:31:16;;;;;;;1.23;0.40;;;;;;;;;;4807935;29;20058;-86
2024/03/09 13:33:47;;;;;;;1.85;0.40;;;;;;;;;;4806888;29;20055;-84
2024/03/09 13:36:22;;;;;;;0.80;0.30;;;;;;;;;;4807412;29;20051;-81
2024/03/09 13:38:52;;;;;;;1.23;0.68;;;;;;;;;;4807412;29;20380;-84
2024/03/09 13:41:27;;;;;;;0.50;0.30;;;;;;;;;;4806756;29;20061;-84
2024/03/09 13:43:59;;;;;;;1.15;0.40;;;;;;;;;;4807146;29;20051;-82
2024/03/09 13:46:29;;;;;;;0.85;0.40;;;;;;;;;;4807025;29;20051;-83
2024/03/09 13:49:11;;;;;;;1.42;0.57;;;;;;;;;;4807123;29;20054;-85
2024/03/09 13:51:43;;;;;;;0.73;0.30;;;;;;;;;;4791092;29;20505;-82
2024/03/09 13:54:17;;;;;;;0.65;0.50;;;;;;;;;;4806221;29;20390;-82
2024/03/09 13:56:48;;;;;;;0.60;0.40;;;;;;;;;;4805821;29;20066;-86
2024/03/09 13:59:21;;;;;;;1.55;0.55;;;;;;;;;;4806562;29;20058;-82
2024/03/09 14:01:55;;;;;;;0.73;0.47;;;;;;;;;;4806694;29;20103;-85
2024/03/09 14:04:25;;;;;;;1.77;0.57;;;;;;;;;;4806381;29;20058;-84
2024/03/09 14:06:55;;;;;;;0.73;0.38;;;;;;;;;;4806117;29;20051;-86
2024/03/09 14:09:45;;;;;;;3.22;0.80;;;;;;;;;;4806539;29;20390;-83
2024/03/09 14:12:21;;;;;;;1.95;0.50;;;;;;;;;;4806953;29;20489;-85
2024/03/09 14:14:54;;;;;;;1.45;0.55;;;;;;;;;;4807452;29;20055;-84
2024/03/09 14:17:25;;;;;;;1.85;0.50;;;;;;;;;;4806739;29;20051;-84
2024/03/09 14:19:56;;;;;;;2.17;0.60;;;;;;;;;;4806211;29;20056;-85
2024/03/09 14:22:26;;;;;;;1.13;0.60;;;;;;;;;;4806175;29;20062;-84
2024/03/09 14:25:00;;;;;;;2.70;0.40;;;;;;;;;;4806121;29;20525;-83
2024/03/09 14:27:31;;;;;;;0.68;0.30;;;;;;;;;;4806095;29;20490;-84
2024/03/09 14:30:07;;;;;;;2.92;0.70;;;;;;;;;;4806115;29;20051;-82
2024/03/09 14:32:39;;;;;;;0.90;0.30;;;;;;;;;;4806026;29;20399;-83
2024/03/09 14:35:16;;;;;;;0.75;0.50;;;;;;;;;;4805865;29;20054;-84
2024/03/09 14:37:56;;;;;;;1.45;0.55;;;;;;;;;;4805956;29;20055;-83
2024/03/09 14:40:33;;;;;;;2.22;0.70;;;;;;;;;;4791005;29;20059;-84
2024/03/09 14:43:08;;;;;;;1.05;0.80;;;;;;;;;;4806562;29;20415;-84
2024/03/09 14:45:39;;;;;;;0.90;0.40;;;;;;;;;;4808395;29;20414;-85
2024/03/09 14:48:11;;;;;;;2.15;0.63;;;;;;;;;;4807161;29;20487;-84
2024/03/09 14:50:42;;;;;;;1.67;0.60;;;;;;;;;;4807075;29;20161;-83
2024/03/09 14:53:13;;;;;;;1.45;0.40;;;;;;;;;;4799119;29;20055;-81
2024/03/09 14:55:45;;;;;;;1.02;0.43;;;;;;;;;;4788778;30;20043;-82
2024/03/09 14:58:17;;;;;;;2.13;0.68;;;;;;;;;;4774128;30;20043;-81
2024/03/09 15:00:54;;;;;;;0.45;0.45;;;;;;;;;;4791425;30;20051;-83
2024/03/09 15:05:56;;;;;;;0.65;0.40;;;;;;;;;;4790423;29;20502;-82
2024/03/09 15:08:27;;;;;;;1.95;1.00;;;;;;;;;;4808084;29;20062;-83
2024/03/09 15:10:57;;;;;;;1.20;0.30;;;;;;;;;;4810240;29;20062;-83
2024/03/09 15:13:38;;;;;;;2.15;0.47;;;;;;;;;;4793388;29;20069;-83
2024/03/09 15:16:09;;;;;;;0.65;0.32;;;;;;;;;;4810538;29;20043;-83
2024/03/09 15:18:40;;;;;;;0.40;0.20;;;;;;;;;;4793131;30;20399;-82
2024/03/09 15:21:10;;;;;;;2.13;0.63;;;;;;;;;;4790978;30;20051;-81